sensor_id;sensor_type;location;lat;lon;timestamp;P1;durP1;ratioP1;P2;durP2;ratioP2
24873;SDS011;12945;42.648;23.370;2023-03-25T00:01:28;35.72;;;18.48;;
24873;SDS011;12945;42.648;23.370;2023-03-25T00:03:53;33.05;;;17.25;;
24873;SDS011;12945;42.648;23.370;2023-03-25T00:06:18;30.48;;;17.50;;
24873;SDS011;12945;42.648;23.370;2023-03-25T00:08:44;30.40;;;17.25;;
24873;SDS011;12945;42.648;23.370;2023-03-25T00:11:09;31.90;;;17.77;;
24873;SDS011;12945;42.648;23.370;2023-03-25T00:13:35;31.10;;;16.05;;
24873;SDS011;12945;42.648;23.370;2023-03-25T00:16:01;32.53;;;16.05;;
24873;SDS011;12945;42.648;23.370;2023-03-25T00:18:27;47.83;;;17.38;;
24873;SDS011;12945;42.648;23.370;2023-03-25T00:20:54;28.70;;;16.23;;
24873;SDS011;12945;42.648;23.370;2023-03-25T00:23:20;28.23;;;15.70;;
24873;SDS011;12945;42.648;23.370;2023-03-25T00:25:46;29.70;;;16.05;;
24873;SDS011;12945;42.648;23.370;2023-03-25T00:28:12;27.38;;;15.50;;
24873;SDS011;12945;42.648;23.370;2023-03-25T00:30:38;27.63;;;14.07;;
24873;SDS011;12945;42.648;23.370;2023-03-25T00:33:03;24.00;;;14.50;;
24873;SDS011;12945;42.648;23.370;2023-03-25T00:35:28;26.65;;;14.82;;
24873;SDS011;12945;42.648;23.370;2023-03-25T00:37:54;27.05;;;14.07;;
24873;SDS011;12945;42.648;23.370;2023-03-25T00:40:28;23.25;;;13.38;;
24873;SDS011;12945;42.648;23.370;2023-03-25T00:42:54;23.58;;;13.75;;
24873;SDS011;12945;42.648;23.370;2023-03-25T00:45:19;24.02;;;13.82;;
24873;SDS011;12945;42.648;23.370;2023-03-25T00:47:44;24.80;;;14.50;;
24873;SDS011;12945;42.648;23.370;2023-03-25T00:50:10;23.63;;;12.93;;
24873;SDS011;12945;42.648;23.370;2023-03-25T00:52:35;25.67;;;14.10;;
24873;SDS011;12945;42.648;23.370;2023-03-25T00:55:01;22.10;;;13.32;;
24873;SDS011;12945;42.648;23.370;2023-03-25T00:57:26;22.60;;;13.55;;
24873;SDS011;12945;42.648;23.370;2023-03-25T00:59:52;23.90;;;13.50;;
24873;SDS011;12945;42.648;23.370;2023-03-25T01:02:17;23.77;;;13.50;;
24873;SDS011;12945;42.648;23.370;2023-03-25T01:04:45;23.92;;;14.75;;
24873;SDS011;12945;42.648;23.370;2023-03-25T01:07:10;28.75;;;13.20;;
24873;SDS011;12945;42.648;23.370;2023-03-25T01:09:37;24.85;;;14.23;;
24873;SDS011;12945;42.648;23.370;2023-03-25T01:12:03;27.13;;;14.43;;
24873;SDS011;12945;42.648;23.370;2023-03-25T01:14:28;30.55;;;14.73;;
24873;SDS011;12945;42.648;23.370;2023-03-25T01:16:53;31.02;;;15.73;;
24873;SDS011;12945;42.648;23.370;2023-03-25T01:19:19;28.90;;;15.10;;
24873;SDS011;12945;42.648;23.370;2023-03-25T01:21:45;24.75;;;14.70;;
24873;SDS011;12945;42.648;23.370;2023-03-25T01:24:11;26.15;;;15.50;;
24873;SDS011;12945;42.648;23.370;2023-03-25T01:26:36;25.67;;;14.38;;
24873;SDS011;12945;42.648;23.370;2023-03-25T01:29:02;30.65;;;14.95;;
24873;SDS011;12945;42.648;23.370;2023-03-25T01:31:27;26.98;;;15.40;;
24873;SDS011;12945;42.648;23.370;2023-03-25T01:33:57;28.58;;;14.95;;
24873;SDS011;12945;42.648;23.370;2023-03-25T01:36:23;26.67;;;13.70;;
24873;SDS011;12945;42.648;23.370;2023-03-25T01:38:48;34.03;;;13.77;;
24873;SDS011;12945;42.648;23.370;2023-03-25T01:41:14;25.85;;;13.55;;
24873;SDS011;12945;42.648;23.370;2023-03-25T01:43:40;24.42;;;13.63;;
24873;SDS011;12945;42.648;23.370;2023-03-25T01:46:07;21.30;;;13.73;;
24873;SDS011;12945;42.648;23.370;2023-03-25T01:48:38;24.15;;;13.43;;
24873;SDS011;12945;42.648;23.370;2023-03-25T01:53:33;22.55;;;13.65;;
24873;SDS011;12945;42.648;23.370;2023-03-25T01:55:59;26.00;;;14.32;;
24873;SDS011;12945;42.648;23.370;2023-03-25T01:58:26;28.17;;;14.55;;
24873;SDS011;12945;42.648;23.370;2023-03-25T02:00:53;25.77;;;14.77;;
24873;SDS011;12945;42.648;23.370;2023-03-25T02:03:19;29.02;;;15.38;;
24873;SDS011;12945;42.648;23.370;2023-03-25T02:05:47;26.27;;;14.07;;
24873;SDS011;12945;42.648;23.370;2023-03-25T02:08:16;28.63;;;13.70;;
24873;SDS011;12945;42.648;23.370;2023-03-25T02:10:45;28.52;;;14.20;;
24873;SDS011;12945;42.648;23.370;2023-03-25T02:13:11;24.23;;;14.32;;
24873;SDS011;12945;42.648;23.370;2023-03-25T02:15:43;29.10;;;14.52;;
24873;SDS011;12945;42.648;23.370;2023-03-25T02:18:17;25.58;;;14.43;;
24873;SDS011;12945;42.648;23.370;2023-03-25T02:28:22;22.45;;;13.65;;
24873;SDS011;12945;42.648;23.370;2023-03-25T02:33:45;23.05;;;13.85;;
24873;SDS011;12945;42.648;23.370;2023-03-25T02:41:04;18.40;;;11.85;;
24873;SDS011;12945;42.648;23.370;2023-03-25T02:43:31;21.77;;;12.43;;
24873;SDS011;12945;42.648;23.370;2023-03-25T02:45:59;24.17;;;12.27;;
24873;SDS011;12945;42.648;23.370;2023-03-25T02:49:09;16.67;;;10.82;;
24873;SDS011;12945;42.648;23.370;2023-03-25T02:51:16;17.88;;;11.45;;
24873;SDS011;12945;42.648;23.370;2023-03-25T02:53:43;20.55;;;12.13;;
24873;SDS011;12945;42.648;23.370;2023-03-25T02:56:11;21.50;;;11.80;;
24873;SDS011;12945;42.648;23.370;2023-03-25T02:58:39;24.33;;;12.80;;
24873;SDS011;12945;42.648;23.370;2023-03-25T03:01:04;19.70;;;11.82;;
24873;SDS011;12945;42.648;23.370;2023-03-25T03:03:30;17.27;;;11.38;;
24873;SDS011;12945;42.648;23.370;2023-03-25T03:05:56;24.27;;;12.32;;
24873;SDS011;12945;42.648;23.370;2023-03-25T03:14:09;17.27;;;11.30;;
24873;SDS011;12945;42.648;23.370;2023-03-25T03:16:21;25.90;;;12.15;;
24873;SDS011;12945;42.648;23.370;2023-03-25T03:21:39;24.35;;;12.00;;
24873;SDS011;12945;42.648;23.370;2023-03-25T03:24:15;18.75;;;12.60;;
24873;SDS011;12945;42.648;23.370;2023-03-25T03:26:52;23.38;;;12.55;;
24873;SDS011;12945;42.648;23.370;2023-03-25T03:29:22;25.08;;;12.73;;
24873;SDS011;12945;42.648;23.370;2023-03-25T03:32:12;24.73;;;13.20;;
24873;SDS011;12945;42.648;23.370;2023-03-25T03:34:56;22.38;;;13.35;;
24873;SDS011;12945;42.648;23.370;2023-03-25T03:37:35;23.30;;;13.32;;
24873;SDS011;12945;42.648;23.370;2023-03-25T03:40:02;20.05;;;12.75;;
24873;SDS011;12945;42.648;23.370;2023-03-25T03:42:29;20.88;;;12.73;;
24873;SDS011;12945;42.648;23.370;2023-03-25T03:44:58;24.08;;;13.93;;
24873;SDS011;12945;42.648;23.370;2023-03-25T03:47:26;27.20;;;13.57;;
24873;SDS011;12945;42.648;23.370;2023-03-25T03:49:57;21.80;;;13.18;;
24873;SDS011;12945;42.648;23.370;2023-03-25T03:52:42;23.05;;;13.32;;
24873;SDS011;12945;42.648;23.370;2023-03-25T03:55:09;22.92;;;13.05;;
24873;SDS011;12945;42.648;23.370;2023-03-25T03:57:44;26.70;;;13.88;;
24873;SDS011;12945;42.648;23.370;2023-03-25T04:00:17;22.05;;;13.25;;
24873;SDS011;12945;42.648;23.370;2023-03-25T04:05:12;30.13;;;15.88;;
24873;SDS011;12945;42.648;23.370;2023-03-25T04:07:50;29.08;;;15.98;;
24873;SDS011;12945;42.648;23.370;2023-03-25T04:10:24;32.17;;;16.17;;
24873;SDS011;12945;42.648;23.370;2023-03-25T04:12:53;29.17;;;17.08;;
24873;SDS011;12945;42.648;23.370;2023-03-25T04:15:19;35.85;;;16.58;;
24873;SDS011;12945;42.648;23.370;2023-03-25T04:17:45;27.08;;;16.33;;
24873;SDS011;12945;42.648;23.370;2023-03-25T04:20:15;37.63;;;18.00;;
24873;SDS011;12945;42.648;23.370;2023-03-25T04:22:41;31.50;;;16.77;;
24873;SDS011;12945;42.648;23.370;2023-03-25T04:25:09;32.42;;;17.35;;
24873;SDS011;12945;42.648;23.370;2023-03-25T04:27:35;28.83;;;16.35;;
24873;SDS011;12945;42.648;23.370;2023-03-25T04:30:02;29.40;;;17.15;;
24873;SDS011;12945;42.648;23.370;2023-03-25T04:32:28;32.28;;;17.45;;
24873;SDS011;12945;42.648;23.370;2023-03-25T04:34:53;29.65;;;17.35;;
24873;SDS011;12945;42.648;23.370;2023-03-25T04:37:22;29.52;;;17.10;;
24873;SDS011;12945;42.648;23.370;2023-03-25T04:39:47;27.63;;;16.02;;
24873;SDS011;12945;42.648;23.370;2023-03-25T04:42:13;34.17;;;16.30;;
24873;SDS011;12945;42.648;23.370;2023-03-25T04:44:41;28.55;;;16.23;;
24873;SDS011;12945;42.648;23.370;2023-03-25T04:47:09;27.75;;;16.33;;
24873;SDS011;12945;42.648;23.370;2023-03-25T04:49:38;30.37;;;16.87;;
24873;SDS011;12945;42.648;23.370;2023-03-25T04:52:04;28.50;;;16.98;;
24873;SDS011;12945;42.648;23.370;2023-03-25T04:54:29;27.77;;;16.80;;
24873;SDS011;12945;42.648;23.370;2023-03-25T04:56:54;24.65;;;16.20;;
24873;SDS011;12945;42.648;23.370;2023-03-25T04:59:21;26.25;;;15.75;;
24873;SDS011;12945;42.648;23.370;2023-03-25T05:01:47;27.50;;;15.75;;
24873;SDS011;12945;42.648;23.370;2023-03-25T05:04:13;38.05;;;17.08;;
24873;SDS011;12945;42.648;23.370;2023-03-25T05:06:42;27.85;;;15.77;;
24873;SDS011;12945;42.648;23.370;2023-03-25T05:09:09;32.28;;;16.65;;
24873;SDS011;12945;42.648;23.370;2023-03-25T05:11:35;27.75;;;16.23;;
24873;SDS011;12945;42.648;23.370;2023-03-25T05:14:02;27.00;;;15.82;;
24873;SDS011;12945;42.648;23.370;2023-03-25T05:16:27;25.45;;;16.23;;
24873;SDS011;12945;42.648;23.370;2023-03-25T05:18:53;31.40;;;15.75;;
24873;SDS011;12945;42.648;23.370;2023-03-25T05:21:18;34.28;;;16.52;;
24873;SDS011;12945;42.648;23.370;2023-03-25T05:23:43;30.30;;;15.88;;
24873;SDS011;12945;42.648;23.370;2023-03-25T05:26:09;26.45;;;15.13;;
24873;SDS011;12945;42.648;23.370;2023-03-25T05:28:36;33.40;;;14.95;;
24873;SDS011;12945;42.648;23.370;2023-03-25T05:31:01;25.48;;;15.27;;
24873;SDS011;12945;42.648;23.370;2023-03-25T05:33:32;34.47;;;17.15;;
24873;SDS011;12945;42.648;23.370;2023-03-25T05:35:57;31.48;;;15.68;;
24873;SDS011;12945;42.648;23.370;2023-03-25T05:38:23;25.27;;;13.85;;
24873;SDS011;12945;42.648;23.370;2023-03-25T05:40:48;29.05;;;14.48;;
24873;SDS011;12945;42.648;23.370;2023-03-25T05:43:14;25.20;;;13.98;;
24873;SDS011;12945;42.648;23.370;2023-03-25T05:45:40;32.15;;;14.05;;
24873;SDS011;12945;42.648;23.370;2023-03-25T05:48:05;28.00;;;13.52;;
24873;SDS011;12945;42.648;23.370;2023-03-25T05:50:32;23.70;;;13.13;;
24873;SDS011;12945;42.648;23.370;2023-03-25T05:52:57;30.70;;;13.25;;
24873;SDS011;12945;42.648;23.370;2023-03-25T05:55:24;24.88;;;13.68;;
24873;SDS011;12945;42.648;23.370;2023-03-25T05:57:49;23.02;;;14.02;;
24873;SDS011;12945;42.648;23.370;2023-03-25T06:00:15;27.30;;;13.80;;
24873;SDS011;12945;42.648;23.370;2023-03-25T06:02:43;32.53;;;14.52;;
24873;SDS011;12945;42.648;23.370;2023-03-25T06:05:09;17.60;;;11.05;;
24873;SDS011;12945;42.648;23.370;2023-03-25T06:07:37;27.05;;;11.80;;
24873;SDS011;12945;42.648;23.370;2023-03-25T06:10:04;22.38;;;11.05;;
24873;SDS011;12945;42.648;23.370;2023-03-25T06:12:29;16.27;;;9.82;;
24873;SDS011;12945;42.648;23.370;2023-03-25T06:14:57;15.90;;;10.82;;
24873;SDS011;12945;42.648;23.370;2023-03-25T06:17:22;22.15;;;10.68;;
24873;SDS011;12945;42.648;23.370;2023-03-25T06:19:48;13.18;;;9.10;;
24873;SDS011;12945;42.648;23.370;2023-03-25T06:22:13;15.70;;;10.23;;
24873;SDS011;12945;42.648;23.370;2023-03-25T06:24:40;16.38;;;9.68;;
24873;SDS011;12945;42.648;23.370;2023-03-25T06:27:11;17.65;;;9.90;;
24873;SDS011;12945;42.648;23.370;2023-03-25T06:29:37;14.52;;;9.02;;
24873;SDS011;12945;42.648;23.370;2023-03-25T06:32:03;20.00;;;9.98;;
24873;SDS011;12945;42.648;23.370;2023-03-25T06:34:28;13.32;;;9.52;;
24873;SDS011;12945;42.648;23.370;2023-03-25T06:36:56;17.00;;;9.20;;
24873;SDS011;12945;42.648;23.370;2023-03-25T06:39:22;17.60;;;10.70;;
24873;SDS011;12945;42.648;23.370;2023-03-25T06:41:47;18.90;;;11.20;;
24873;SDS011;12945;42.648;23.370;2023-03-25T06:44:12;22.65;;;11.20;;
24873;SDS011;12945;42.648;23.370;2023-03-25T06:46:37;16.45;;;10.60;;
24873;SDS011;12945;42.648;23.370;2023-03-25T06:49:03;27.83;;;11.77;;
24873;SDS011;12945;42.648;23.370;2023-03-25T06:51:28;19.52;;;10.63;;
24873;SDS011;12945;42.648;23.370;2023-03-25T06:53:53;18.90;;;11.13;;
24873;SDS011;12945;42.648;23.370;2023-03-25T06:56:19;20.38;;;11.07;;
24873;SDS011;12945;42.648;23.370;2023-03-25T06:58:44;20.15;;;10.48;;
24873;SDS011;12945;42.648;23.370;2023-03-25T07:01:09;24.02;;;13.15;;
24873;SDS011;12945;42.648;23.370;2023-03-25T07:03:35;25.13;;;14.43;;
24873;SDS011;12945;42.648;23.370;2023-03-25T07:06:01;26.10;;;15.60;;
24873;SDS011;12945;42.648;23.370;2023-03-25T07:08:26;26.10;;;14.60;;
24873;SDS011;12945;42.648;23.370;2023-03-25T07:10:52;28.52;;;14.98;;
24873;SDS011;12945;42.648;23.370;2023-03-25T07:13:17;27.23;;;14.30;;
24873;SDS011;12945;42.648;23.370;2023-03-25T07:15:42;34.30;;;16.35;;
24873;SDS011;12945;42.648;23.370;2023-03-25T07:18:08;37.08;;;17.88;;
24873;SDS011;12945;42.648;23.370;2023-03-25T07:20:33;40.85;;;17.08;;
24873;SDS011;12945;42.648;23.370;2023-03-25T07:22:58;27.80;;;16.85;;
24873;SDS011;12945;42.648;23.370;2023-03-25T07:25:23;37.28;;;16.67;;
24873;SDS011;12945;42.648;23.370;2023-03-25T07:27:49;32.70;;;17.17;;
24873;SDS011;12945;42.648;23.370;2023-03-25T07:30:14;38.55;;;17.35;;
24873;SDS011;12945;42.648;23.370;2023-03-25T07:32:40;32.95;;;17.13;;
24873;SDS011;12945;42.648;23.370;2023-03-25T07:35:05;29.38;;;15.50;;
24873;SDS011;12945;42.648;23.370;2023-03-25T07:37:33;25.05;;;14.40;;
24873;SDS011;12945;42.648;23.370;2023-03-25T07:39:58;29.30;;;15.50;;
24873;SDS011;12945;42.648;23.370;2023-03-25T07:42:24;26.73;;;15.07;;
24873;SDS011;12945;42.648;23.370;2023-03-25T07:44:49;23.60;;;14.27;;
24873;SDS011;12945;42.648;23.370;2023-03-25T07:47:14;30.80;;;13.68;;
24873;SDS011;12945;42.648;23.370;2023-03-25T07:49:40;24.10;;;13.82;;
24873;SDS011;12945;42.648;23.370;2023-03-25T07:52:08;25.50;;;14.73;;
24873;SDS011;12945;42.648;23.370;2023-03-25T07:54:34;26.63;;;13.25;;
24873;SDS011;12945;42.648;23.370;2023-03-25T07:57:00;26.92;;;14.77;;
24873;SDS011;12945;42.648;23.370;2023-03-25T07:59:25;30.65;;;14.77;;
24873;SDS011;12945;42.648;23.370;2023-03-25T08:01:51;26.05;;;14.60;;
24873;SDS011;12945;42.648;23.370;2023-03-25T08:04:16;23.65;;;14.15;;
24873;SDS011;12945;42.648;23.370;2023-03-25T08:06:41;22.90;;;14.88;;
24873;SDS011;12945;42.648;23.370;2023-03-25T08:09:07;29.90;;;17.40;;
24873;SDS011;12945;42.648;23.370;2023-03-25T08:11:32;24.13;;;15.63;;
24873;SDS011;12945;42.648;23.370;2023-03-25T08:13:57;30.25;;;15.00;;
24873;SDS011;12945;42.648;23.370;2023-03-25T08:16:23;30.67;;;16.98;;
24873;SDS011;12945;42.648;23.370;2023-03-25T08:18:48;28.27;;;16.67;;
24873;SDS011;12945;42.648;23.370;2023-03-25T08:21:17;28.75;;;15.50;;
24873;SDS011;12945;42.648;23.370;2023-03-25T08:23:46;26.70;;;14.25;;
24873;SDS011;12945;42.648;23.370;2023-03-25T08:26:11;30.08;;;14.30;;
24873;SDS011;12945;42.648;23.370;2023-03-25T08:28:37;24.40;;;13.93;;
24873;SDS011;12945;42.648;23.370;2023-03-25T08:31:04;27.48;;;13.02;;
24873;SDS011;12945;42.648;23.370;2023-03-25T08:33:29;24.85;;;13.52;;
24873;SDS011;12945;42.648;23.370;2023-03-25T08:36:03;20.50;;;13.38;;
24873;SDS011;12945;42.648;23.370;2023-03-25T08:38:29;21.13;;;13.25;;
24873;SDS011;12945;42.648;23.370;2023-03-25T08:40:56;22.02;;;14.00;;
24873;SDS011;12945;42.648;23.370;2023-03-25T08:43:21;24.17;;;12.65;;
24873;SDS011;12945;42.648;23.370;2023-03-25T08:45:46;18.80;;;12.50;;
24873;SDS011;12945;42.648;23.370;2023-03-25T08:48:11;21.92;;;12.88;;
24873;SDS011;12945;42.648;23.370;2023-03-25T08:50:37;25.23;;;12.50;;
24873;SDS011;12945;42.648;23.370;2023-03-25T08:53:02;18.77;;;12.68;;
24873;SDS011;12945;42.648;23.370;2023-03-25T08:55:27;27.73;;;12.38;;
24873;SDS011;12945;42.648;23.370;2023-03-25T08:57:53;31.33;;;12.38;;
24873;SDS011;12945;42.648;23.370;2023-03-25T09:00:18;24.98;;;13.20;;
24873;SDS011;12945;42.648;23.370;2023-03-25T09:02:48;23.15;;;12.35;;
24873;SDS011;12945;42.648;23.370;2023-03-25T09:05:13;21.08;;;12.10;;
24873;SDS011;12945;42.648;23.370;2023-03-25T09:07:40;26.27;;;13.63;;
24873;SDS011;12945;42.648;23.370;2023-03-25T09:10:06;25.63;;;12.65;;
24873;SDS011;12945;42.648;23.370;2023-03-25T09:12:32;27.80;;;13.18;;
24873;SDS011;12945;42.648;23.370;2023-03-25T09:14:57;21.13;;;12.45;;
24873;SDS011;12945;42.648;23.370;2023-03-25T09:17:22;27.77;;;12.40;;
24873;SDS011;12945;42.648;23.370;2023-03-25T09:19:48;22.48;;;13.10;;
24873;SDS011;12945;42.648;23.370;2023-03-25T09:22:13;26.27;;;12.18;;
24873;SDS011;12945;42.648;23.370;2023-03-25T09:24:39;20.60;;;13.18;;
24873;SDS011;12945;42.648;23.370;2023-03-25T09:27:04;20.77;;;12.85;;
24873;SDS011;12945;42.648;23.370;2023-03-25T09:29:30;28.60;;;12.57;;
24873;SDS011;12945;42.648;23.370;2023-03-25T09:31:55;23.48;;;11.50;;
24873;SDS011;12945;42.648;23.370;2023-03-25T09:34:22;20.30;;;11.73;;
24873;SDS011;12945;42.648;23.370;2023-03-25T09:36:47;28.08;;;10.63;;
24873;SDS011;12945;42.648;23.370;2023-03-25T09:39:13;21.07;;;11.30;;
24873;SDS011;12945;42.648;23.370;2023-03-25T09:44:04;19.57;;;10.83;;
24873;SDS011;12945;42.648;23.370;2023-03-25T09:46:35;24.60;;;11.18;;
24873;SDS011;12945;42.648;23.370;2023-03-25T09:49:00;21.10;;;10.35;;
24873;SDS011;12945;42.648;23.370;2023-03-25T09:51:30;20.35;;;9.63;;
24873;SDS011;12945;42.648;23.370;2023-03-25T09:54:15;22.17;;;10.27;;
24873;SDS011;12945;42.648;23.370;2023-03-25T09:56:41;21.13;;;10.25;;
24873;SDS011;12945;42.648;23.370;2023-03-25T09:59:11;26.27;;;10.70;;
24873;SDS011;12945;42.648;23.370;2023-03-25T10:14:32;20.48;;;10.07;;
24873;SDS011;12945;42.648;23.370;2023-03-25T10:19:35;17.33;;;9.50;;
24873;SDS011;12945;42.648;23.370;2023-03-25T10:22:04;16.65;;;8.15;;
24873;SDS011;12945;42.648;23.370;2023-03-25T10:24:35;22.73;;;8.25;;
24873;SDS011;12945;42.648;23.370;2023-03-25T10:27:10;19.67;;;8.10;;
24873;SDS011;12945;42.648;23.370;2023-03-25T10:29:44;15.57;;;7.40;;
24873;SDS011;12945;42.648;23.370;2023-03-25T10:32:15;18.48;;;7.35;;
24873;SDS011;12945;42.648;23.370;2023-03-25T10:34:44;14.70;;;7.40;;
24873;SDS011;12945;42.648;23.370;2023-03-25T10:37:11;9.32;;;5.32;;
24873;SDS011;12945;42.648;23.370;2023-03-25T10:39:40;9.27;;;5.03;;
24873;SDS011;12945;42.648;23.370;2023-03-25T10:42:29;7.70;;;4.15;;
24873;SDS011;12945;42.648;23.370;2023-03-25T10:44:55;8.27;;;4.55;;
24873;SDS011;12945;42.648;23.370;2023-03-25T10:47:22;9.60;;;5.90;;
24873;SDS011;12945;42.648;23.370;2023-03-25T10:49:49;13.13;;;6.18;;
24873;SDS011;12945;42.648;23.370;2023-03-25T10:52:16;13.55;;;6.25;;
24873;SDS011;12945;42.648;23.370;2023-03-25T10:54:43;8.25;;;5.25;;
24873;SDS011;12945;42.648;23.370;2023-03-25T10:57:09;8.35;;;4.72;;
24873;SDS011;12945;42.648;23.370;2023-03-25T11:02:13;7.68;;;4.20;;
24873;SDS011;12945;42.648;23.370;2023-03-25T11:04:41;7.63;;;4.15;;
24873;SDS011;12945;42.648;23.370;2023-03-25T11:07:12;6.93;;;4.30;;
24873;SDS011;12945;42.648;23.370;2023-03-25T11:09:40;7.80;;;4.30;;
24873;SDS011;12945;42.648;23.370;2023-03-25T11:12:06;16.38;;;4.30;;
24873;SDS011;12945;42.648;23.370;2023-03-25T11:14:35;4.93;;;3.70;;
24873;SDS011;12945;42.648;23.370;2023-03-25T11:17:01;9.50;;;4.80;;
24873;SDS011;12945;42.648;23.370;2023-03-25T11:22:14;9.63;;;4.63;;
24873;SDS011;12945;42.648;23.370;2023-03-25T11:24:41;9.63;;;4.25;;
24873;SDS011;12945;42.648;23.370;2023-03-25T11:27:07;7.68;;;4.45;;
24873;SDS011;12945;42.648;23.370;2023-03-25T11:29:33;8.23;;;4.68;;
24873;SDS011;12945;42.648;23.370;2023-03-25T11:32:07;10.65;;;5.57;;
24873;SDS011;12945;42.648;23.370;2023-03-25T11:34:34;13.60;;;5.70;;
24873;SDS011;12945;42.648;23.370;2023-03-25T11:37:06;15.63;;;4.68;;
24873;SDS011;12945;42.648;23.370;2023-03-25T11:39:38;10.13;;;3.95;;
24873;SDS011;12945;42.648;23.370;2023-03-25T11:42:25;7.32;;;4.10;;
24873;SDS011;12945;42.648;23.370;2023-03-25T11:44:53;8.07;;;4.35;;
24873;SDS011;12945;42.648;23.370;2023-03-25T11:47:24;9.93;;;4.70;;
24873;SDS011;12945;42.648;23.370;2023-03-25T11:49:50;8.05;;;4.13;;
24873;SDS011;12945;42.648;23.370;2023-03-25T11:52:20;6.30;;;4.00;;
24873;SDS011;12945;42.648;23.370;2023-03-25T11:54:46;11.80;;;3.67;;
24873;SDS011;12945;42.648;23.370;2023-03-25T11:57:25;5.07;;;3.45;;
24873;SDS011;12945;42.648;23.370;2023-03-25T11:59:59;8.30;;;4.18;;
24873;SDS011;12945;42.648;23.370;2023-03-25T12:02:28;7.28;;;3.75;;
24873;SDS011;12945;42.648;23.370;2023-03-25T12:05:28;7.45;;;3.65;;
24873;SDS011;12945;42.648;23.370;2023-03-25T12:07:50;8.77;;;3.90;;
24873;SDS011;12945;42.648;23.370;2023-03-25T12:10:30;5.43;;;3.30;;
24873;SDS011;12945;42.648;23.370;2023-03-25T12:13:04;5.57;;;3.90;;
24873;SDS011;12945;42.648;23.370;2023-03-25T12:15:43;11.20;;;3.60;;
24873;SDS011;12945;42.648;23.370;2023-03-25T12:18:15;6.57;;;3.47;;
24873;SDS011;12945;42.648;23.370;2023-03-25T12:26:39;7.75;;;3.65;;
24873;SDS011;12945;42.648;23.370;2023-03-25T12:28:47;6.03;;;3.08;;
24873;SDS011;12945;42.648;23.370;2023-03-25T12:39:19;6.75;;;3.38;;
24873;SDS011;12945;42.648;23.370;2023-03-25T12:47:01;8.88;;;3.50;;
24873;SDS011;12945;42.648;23.370;2023-03-25T12:49:46;6.78;;;3.60;;
24873;SDS011;12945;42.648;23.370;2023-03-25T12:53:00;5.50;;;3.40;;
24873;SDS011;12945;42.648;23.370;2023-03-25T12:58:32;10.20;;;3.70;;
24873;SDS011;12945;42.648;23.370;2023-03-25T13:03:13;4.68;;;3.20;;
24873;SDS011;12945;42.648;23.370;2023-03-25T13:08:33;9.77;;;3.45;;
24873;SDS011;12945;42.648;23.370;2023-03-25T13:11:34;7.05;;;3.53;;
24873;SDS011;12945;42.648;23.370;2023-03-25T13:13:52;7.63;;;3.67;;
24873;SDS011;12945;42.648;23.370;2023-03-25T13:16:22;8.43;;;3.40;;
24873;SDS011;12945;42.648;23.370;2023-03-25T13:18:53;6.15;;;3.58;;
24873;SDS011;12945;42.648;23.370;2023-03-25T13:21:27;6.93;;;3.92;;
24873;SDS011;12945;42.648;23.370;2023-03-25T13:24:00;7.05;;;3.38;;
24873;SDS011;12945;42.648;23.370;2023-03-25T13:26:27;9.13;;;4.30;;
24873;SDS011;12945;42.648;23.370;2023-03-25T13:29:06;10.20;;;4.00;;
24873;SDS011;12945;42.648;23.370;2023-03-25T13:31:37;7.43;;;3.90;;
24873;SDS011;12945;42.648;23.370;2023-03-25T13:37:13;7.75;;;4.00;;
24873;SDS011;12945;42.648;23.370;2023-03-25T13:42:53;8.25;;;4.05;;
24873;SDS011;12945;42.648;23.370;2023-03-25T13:44:53;9.27;;;5.13;;
24873;SDS011;12945;42.648;23.370;2023-03-25T13:47:21;5.75;;;3.33;;
24873;SDS011;12945;42.648;23.370;2023-03-25T13:49:53;4.10;;;3.33;;
24873;SDS011;12945;42.648;23.370;2023-03-25T13:52:19;7.75;;;3.45;;
24873;SDS011;12945;42.648;23.370;2023-03-25T13:54:56;7.15;;;3.30;;
24873;SDS011;12945;42.648;23.370;2023-03-25T14:07:40;5.90;;;3.67;;
24873;SDS011;12945;42.648;23.370;2023-03-25T14:10:23;7.57;;;3.85;;
24873;SDS011;12945;42.648;23.370;2023-03-25T14:12:49;6.88;;;3.90;;
24873;SDS011;12945;42.648;23.370;2023-03-25T14:15:20;7.00;;;4.30;;
24873;SDS011;12945;42.648;23.370;2023-03-25T14:17:46;7.55;;;4.55;;
24873;SDS011;12945;42.648;23.370;2023-03-25T14:20:16;7.53;;;4.65;;
24873;SDS011;12945;42.648;23.370;2023-03-25T14:22:42;8.15;;;4.32;;
24873;SDS011;12945;42.648;23.370;2023-03-25T14:25:26;8.70;;;4.95;;
24873;SDS011;12945;42.648;23.370;2023-03-25T14:27:52;8.15;;;4.70;;
24873;SDS011;12945;42.648;23.370;2023-03-25T14:30:22;11.40;;;5.20;;
24873;SDS011;12945;42.648;23.370;2023-03-25T14:48:50;13.20;;;6.20;;
24873;SDS011;12945;42.648;23.370;2023-03-25T14:53:39;13.07;;;6.68;;
24873;SDS011;12945;42.648;23.370;2023-03-25T14:56:06;16.13;;;8.48;;
24873;SDS011;12945;42.648;23.370;2023-03-25T14:58:31;9.85;;;6.60;;
24873;SDS011;12945;42.648;23.370;2023-03-25T15:01:08;7.32;;;5.60;;
24873;SDS011;12945;42.648;23.370;2023-03-25T15:03:39;9.02;;;4.75;;
24873;SDS011;12945;42.648;23.370;2023-03-25T15:06:07;8.85;;;5.22;;
24873;SDS011;12945;42.648;23.370;2023-03-25T15:08:34;10.43;;;5.28;;
24873;SDS011;12945;42.648;23.370;2023-03-25T15:11:10;11.02;;;5.50;;
24873;SDS011;12945;42.648;23.370;2023-03-25T15:13:41;9.32;;;4.50;;
24873;SDS011;12945;42.648;23.370;2023-03-25T15:26:01;13.27;;;6.65;;
24873;SDS011;12945;42.648;23.370;2023-03-25T15:28:44;11.82;;;6.00;;
24873;SDS011;12945;42.648;23.370;2023-03-25T15:33:43;10.93;;;5.80;;
24873;SDS011;12945;42.648;23.370;2023-03-25T15:54:53;7.13;;;5.38;;
24873;SDS011;12945;42.648;23.370;2023-03-25T16:04:50;10.20;;;6.10;;
24873;SDS011;12945;42.648;23.370;2023-03-25T16:07:17;9.82;;;6.00;;
24873;SDS011;12945;42.648;23.370;2023-03-25T16:09:44;11.27;;;6.05;;
24873;SDS011;12945;42.648;23.370;2023-03-25T16:12:10;10.63;;;5.80;;
24873;SDS011;12945;42.648;23.370;2023-03-25T16:14:36;8.45;;;6.35;;
24873;SDS011;12945;42.648;23.370;2023-03-25T16:17:02;11.43;;;6.78;;
24873;SDS011;12945;42.648;23.370;2023-03-25T16:19:41;12.88;;;7.13;;
24873;SDS011;12945;42.648;23.370;2023-03-25T16:24:39;9.65;;;6.50;;
24873;SDS011;12945;42.648;23.370;2023-03-25T16:27:17;11.13;;;6.45;;
24873;SDS011;12945;42.648;23.370;2023-03-25T16:29:47;11.52;;;6.13;;
24873;SDS011;12945;42.648;23.370;2023-03-25T16:32:16;11.50;;;5.88;;
24873;SDS011;12945;42.648;23.370;2023-03-25T16:34:42;7.10;;;5.38;;
24873;SDS011;12945;42.648;23.370;2023-03-25T16:37:08;7.13;;;4.78;;
24873;SDS011;12945;42.648;23.370;2023-03-25T16:39:34;10.15;;;5.32;;
24873;SDS011;12945;42.648;23.370;2023-03-25T16:42:01;11.05;;;5.25;;
24873;SDS011;12945;42.648;23.370;2023-03-25T16:44:34;9.10;;;6.05;;
24873;SDS011;12945;42.648;23.370;2023-03-25T16:47:00;10.57;;;6.55;;
24873;SDS011;12945;42.648;23.370;2023-03-25T16:49:29;13.15;;;6.47;;
24873;SDS011;12945;42.648;23.370;2023-03-25T16:51:55;10.02;;;5.63;;
24873;SDS011;12945;42.648;23.370;2023-03-25T16:54:33;8.02;;;5.70;;
24873;SDS011;12945;42.648;23.370;2023-03-25T16:57:00;7.75;;;5.40;;